sensor_id;sensor_type;location;lat;lon;timestamp;P1;durP1;ratioP1;P2;durP2;ratioP2
79438;SDS011;68889;48.232;10.110;2023-04-16T00:02:10;4.97;;;2.05;;
79438;SDS011;68889;48.232;10.110;2023-04-16T00:04:35;4.18;;;2.42;;
79438;SDS011;68889;48.232;10.110;2023-04-16T00:07:01;4.30;;;2.70;;
79438;SDS011;68889;48.232;10.110;2023-04-16T00:09:26;4.72;;;2.30;;
79438;SDS011;68889;48.232;10.110;2023-04-16T00:11:52;4.07;;;2.10;;
79438;SDS011;68889;48.232;10.110;2023-04-16T00:14:18;2.78;;;1.60;;
79438;SDS011;68889;48.232;10.110;2023-04-16T00:16:43;2.45;;;1.52;;
79438;SDS011;68889;48.232;10.110;2023-04-16T00:19:09;2.65;;;1.35;;
79438;SDS011;68889;48.232;10.110;2023-04-16T00:21:35;2.05;;;1.30;;
79438;SDS011;68889;48.232;10.110;2023-04-16T00:24:00;3.80;;;1.77;;
79438;SDS011;68889;48.232;10.110;2023-04-16T00:26:26;2.83;;;1.67;;
79438;SDS011;68889;48.232;10.110;2023-04-16T00:28:51;3.10;;;1.63;;
79438;SDS011;68889;48.232;10.110;2023-04-16T00:31:17;3.15;;;2.00;;
79438;SDS011;68889;48.232;10.110;2023-04-16T00:33:42;2.83;;;1.75;;
79438;SDS011;68889;48.232;10.110;2023-04-16T00:36:08;2.60;;;1.60;;
79438;SDS011;68889;48.232;10.110;2023-04-16T00:38:34;3.08;;;1.98;;
79438;SDS011;68889;48.232;10.110;2023-04-16T00:40:59;3.25;;;1.80;;
79438;SDS011;68889;48.232;10.110;2023-04-16T00:43:25;2.83;;;1.60;;
79438;SDS011;68889;48.232;10.110;2023-04-16T00:45:51;2.50;;;1.60;;
79438;SDS011;68889;48.232;10.110;2023-04-16T00:50:45;2.67;;;1.38;;
79438;SDS011;68889;48.232;10.110;2023-04-16T00:53:10;2.35;;;1.50;;
79438;SDS011;68889;48.232;10.110;2023-04-16T00:55:38;3.17;;;1.70;;
79438;SDS011;68889;48.232;10.110;2023-04-16T00:58:04;2.63;;;1.48;;
79438;SDS011;68889;48.232;10.110;2023-04-16T01:00:30;3.80;;;2.00;;
79438;SDS011;68889;48.232;10.110;2023-04-16T01:02:56;3.53;;;2.47;;
79438;SDS011;68889;48.232;10.110;2023-04-16T01:05:22;2.88;;;1.67;;
79438;SDS011;68889;48.232;10.110;2023-04-16T01:07:48;3.35;;;1.77;;
79438;SDS011;68889;48.232;10.110;2023-04-16T01:10:14;2.83;;;1.75;;
79438;SDS011;68889;48.232;10.110;2023-04-16T01:12:40;4.28;;;2.15;;
79438;SDS011;68889;48.232;10.110;2023-04-16T01:15:06;3.72;;;2.03;;
79438;SDS011;68889;48.232;10.110;2023-04-16T01:17:32;2.95;;;2.13;;
79438;SDS011;68889;48.232;10.110;2023-04-16T01:19:58;3.22;;;2.03;;
79438;SDS011;68889;48.232;10.110;2023-04-16T01:22:24;4.35;;;2.42;;
79438;SDS011;68889;48.232;10.110;2023-04-16T01:24:51;4.65;;;2.55;;
79438;SDS011;68889;48.232;10.110;2023-04-16T01:27:16;4.05;;;2.45;;
79438;SDS011;68889;48.232;10.110;2023-04-16T01:29:42;4.95;;;2.42;;
79438;SDS011;68889;48.232;10.110;2023-04-16T01:32:07;3.80;;;2.65;;
79438;SDS011;68889;48.232;10.110;2023-04-16T01:34:33;4.13;;;2.47;;
79438;SDS011;68889;48.232;10.110;2023-04-16T01:36:58;3.90;;;2.58;;
79438;SDS011;68889;48.232;10.110;2023-04-16T01:39:24;4.85;;;2.83;;
79438;SDS011;68889;48.232;10.110;2023-04-16T01:41:50;4.85;;;2.58;;
79438;SDS011;68889;48.232;10.110;2023-04-16T01:44:15;4.40;;;2.80;;
79438;SDS011;68889;48.232;10.110;2023-04-16T01:46:41;4.57;;;2.47;;
79438;SDS011;68889;48.232;10.110;2023-04-16T01:49:07;4.20;;;2.80;;
79438;SDS011;68889;48.232;10.110;2023-04-16T01:51:33;4.60;;;3.03;;
79438;SDS011;68889;48.232;10.110;2023-04-16T01:53:58;5.50;;;2.95;;
79438;SDS011;68889;48.232;10.110;2023-04-16T01:56:25;6.10;;;3.10;;
79438;SDS011;68889;48.232;10.110;2023-04-16T01:58:51;5.10;;;3.08;;
79438;SDS011;68889;48.232;10.110;2023-04-16T02:01:17;5.07;;;3.03;;
79438;SDS011;68889;48.232;10.110;2023-04-16T02:03:42;4.22;;;2.80;;
79438;SDS011;68889;48.232;10.110;2023-04-16T02:06:08;4.35;;;2.75;;
79438;SDS011;68889;48.232;10.110;2023-04-16T02:08:34;3.53;;;2.90;;
79438;SDS011;68889;48.232;10.110;2023-04-16T02:10:59;3.97;;;2.70;;
79438;SDS011;68889;48.232;10.110;2023-04-16T02:13:25;4.72;;;2.70;;
79438;SDS011;68889;48.232;10.110;2023-04-16T02:15:51;5.07;;;3.22;;
79438;SDS011;68889;48.232;10.110;2023-04-16T02:18:17;4.90;;;2.95;;
79438;SDS011;68889;48.232;10.110;2023-04-16T02:20:43;4.25;;;2.55;;
79438;SDS011;68889;48.232;10.110;2023-04-16T02:23:10;5.32;;;3.20;;
79438;SDS011;68889;48.232;10.110;2023-04-16T02:25:41;3.78;;;2.38;;
79438;SDS011;68889;48.232;10.110;2023-04-16T02:28:09;3.28;;;2.17;;
79438;SDS011;68889;48.232;10.110;2023-04-16T02:30:36;4.53;;;3.10;;
79438;SDS011;68889;48.232;10.110;2023-04-16T02:33:05;4.53;;;2.88;;
79438;SDS011;68889;48.232;10.110;2023-04-16T02:35:32;4.55;;;2.75;;
79438;SDS011;68889;48.232;10.110;2023-04-16T02:38:02;3.70;;;2.20;;
79438;SDS011;68889;48.232;10.110;2023-04-16T02:40:28;6.35;;;2.92;;
79438;SDS011;68889;48.232;10.110;2023-04-16T02:42:55;4.00;;;2.63;;
79438;SDS011;68889;48.232;10.110;2023-04-16T02:45:21;3.80;;;2.38;;
79438;SDS011;68889;48.232;10.110;2023-04-16T02:47:47;4.47;;;2.67;;
79438;SDS011;68889;48.232;10.110;2023-04-16T02:50:13;5.15;;;2.70;;
79438;SDS011;68889;48.232;10.110;2023-04-16T02:52:38;3.90;;;2.70;;
79438;SDS011;68889;48.232;10.110;2023-04-16T02:55:04;4.15;;;2.65;;
79438;SDS011;68889;48.232;10.110;2023-04-16T02:57:31;3.53;;;2.42;;
79438;SDS011;68889;48.232;10.110;2023-04-16T02:59:56;4.60;;;3.10;;
79438;SDS011;68889;48.232;10.110;2023-04-16T03:02:22;4.93;;;3.35;;
79438;SDS011;68889;48.232;10.110;2023-04-16T03:04:47;4.75;;;3.13;;
79438;SDS011;68889;48.232;10.110;2023-04-16T03:07:13;3.75;;;2.53;;
79438;SDS011;68889;48.232;10.110;2023-04-16T03:09:39;4.10;;;2.88;;
79438;SDS011;68889;48.232;10.110;2023-04-16T03:12:04;4.72;;;3.22;;
79438;SDS011;68889;48.232;10.110;2023-04-16T03:14:30;5.13;;;3.30;;
79438;SDS011;68889;48.232;10.110;2023-04-16T03:16:56;4.85;;;2.63;;
79438;SDS011;68889;48.232;10.110;2023-04-16T03:19:22;4.45;;;2.83;;
79438;SDS011;68889;48.232;10.110;2023-04-16T03:21:47;4.22;;;2.90;;
79438;SDS011;68889;48.232;10.110;2023-04-16T03:24:13;4.07;;;2.90;;
79438;SDS011;68889;48.232;10.110;2023-04-16T03:26:38;4.80;;;2.80;;
79438;SDS011;68889;48.232;10.110;2023-04-16T03:29:04;5.03;;;3.00;;
79438;SDS011;68889;48.232;10.110;2023-04-16T03:31:30;4.63;;;2.90;;
79438;SDS011;68889;48.232;10.110;2023-04-16T03:33:55;4.20;;;2.67;;
79438;SDS011;68889;48.232;10.110;2023-04-16T03:36:21;4.47;;;3.00;;
79438;SDS011;68889;48.232;10.110;2023-04-16T03:38:47;4.43;;;2.63;;
79438;SDS011;68889;48.232;10.110;2023-04-16T03:41:13;4.82;;;3.17;;
79438;SDS011;68889;48.232;10.110;2023-04-16T03:43:38;4.25;;;3.05;;
79438;SDS011;68889;48.232;10.110;2023-04-16T03:46:04;4.15;;;2.75;;
79438;SDS011;68889;48.232;10.110;2023-04-16T03:48:29;4.13;;;2.78;;
79438;SDS011;68889;48.232;10.110;2023-04-16T03:50:55;4.43;;;2.63;;
79438;SDS011;68889;48.232;10.110;2023-04-16T03:53:20;3.83;;;2.47;;
79438;SDS011;68889;48.232;10.110;2023-04-16T03:55:48;3.45;;;2.38;;
79438;SDS011;68889;48.232;10.110;2023-04-16T03:58:17;4.40;;;2.88;;
79438;SDS011;68889;48.232;10.110;2023-04-16T04:00:43;4.43;;;2.72;;
79438;SDS011;68889;48.232;10.110;2023-04-16T04:03:10;5.25;;;3.20;;
79438;SDS011;68889;48.232;10.110;2023-04-16T04:05:36;5.05;;;2.80;;
79438;SDS011;68889;48.232;10.110;2023-04-16T04:08:05;3.70;;;2.47;;
79438;SDS011;68889;48.232;10.110;2023-04-16T04:10:32;4.15;;;2.70;;
79438;SDS011;68889;48.232;10.110;2023-04-16T04:12:58;4.63;;;2.92;;
79438;SDS011;68889;48.232;10.110;2023-04-16T04:15:24;4.38;;;3.20;;
79438;SDS011;68889;48.232;10.110;2023-04-16T04:17:50;3.80;;;2.58;;
79438;SDS011;68889;48.232;10.110;2023-04-16T04:20:15;5.90;;;3.08;;
79438;SDS011;68889;48.232;10.110;2023-04-16T04:22:41;4.38;;;2.75;;
79438;SDS011;68889;48.232;10.110;2023-04-16T04:25:07;4.43;;;2.90;;
79438;SDS011;68889;48.232;10.110;2023-04-16T04:27:34;5.25;;;3.17;;
79438;SDS011;68889;48.232;10.110;2023-04-16T04:29:59;4.10;;;2.65;;
79438;SDS011;68889;48.232;10.110;2023-04-16T04:32:25;3.92;;;2.30;;
79438;SDS011;68889;48.232;10.110;2023-04-16T04:34:50;4.60;;;2.90;;
79438;SDS011;68889;48.232;10.110;2023-04-16T04:37:16;4.47;;;3.03;;
79438;SDS011;68889;48.232;10.110;2023-04-16T04:39:41;4.63;;;2.95;;
79438;SDS011;68889;48.232;10.110;2023-04-16T04:42:07;4.60;;;2.80;;
79438;SDS011;68889;48.232;10.110;2023-04-16T04:44:33;4.00;;;2.90;;
79438;SDS011;68889;48.232;10.110;2023-04-16T04:46:58;4.78;;;2.60;;
79438;SDS011;68889;48.232;10.110;2023-04-16T04:49:24;4.68;;;2.92;;
79438;SDS011;68889;48.232;10.110;2023-04-16T04:51:49;3.75;;;2.53;;
79438;SDS011;68889;48.232;10.110;2023-04-16T04:54:15;5.30;;;2.40;;
79438;SDS011;68889;48.232;10.110;2023-04-16T04:56:41;4.43;;;2.92;;
79438;SDS011;68889;48.232;10.110;2023-04-16T04:59:09;3.95;;;2.50;;
79438;SDS011;68889;48.232;10.110;2023-04-16T05:01:35;4.80;;;3.10;;
79438;SDS011;68889;48.232;10.110;2023-04-16T05:04:00;6.13;;;3.30;;
79438;SDS011;68889;48.232;10.110;2023-04-16T05:06:26;4.53;;;3.00;;
79438;SDS011;68889;48.232;10.110;2023-04-16T05:08:52;4.43;;;3.10;;
79438;SDS011;68889;48.232;10.110;2023-04-16T05:11:17;3.90;;;2.50;;
79438;SDS011;68889;48.232;10.110;2023-04-16T05:13:43;3.65;;;2.70;;
79438;SDS011;68889;48.232;10.110;2023-04-16T05:16:08;3.45;;;2.30;;
79438;SDS011;68889;48.232;10.110;2023-04-16T05:18:34;3.65;;;2.45;;
79438;SDS011;68889;48.232;10.110;2023-04-16T05:21:00;5.32;;;3.22;;
79438;SDS011;68889;48.232;10.110;2023-04-16T05:23:25;4.95;;;2.88;;
79438;SDS011;68889;48.232;10.110;2023-04-16T05:25:51;3.65;;;2.55;;
79438;SDS011;68889;48.232;10.110;2023-04-16T05:28:16;4.25;;;2.63;;
79438;SDS011;68889;48.232;10.110;2023-04-16T05:30:42;3.88;;;2.50;;
79438;SDS011;68889;48.232;10.110;2023-04-16T05:33:08;3.55;;;2.38;;
79438;SDS011;68889;48.232;10.110;2023-04-16T05:35:33;4.50;;;2.65;;
79438;SDS011;68889;48.232;10.110;2023-04-16T05:37:59;3.47;;;2.30;;
79438;SDS011;68889;48.232;10.110;2023-04-16T05:40:27;3.20;;;2.00;;
79438;SDS011;68889;48.232;10.110;2023-04-16T05:42:55;4.03;;;2.53;;
79438;SDS011;68889;48.232;10.110;2023-04-16T05:45:21;4.13;;;3.00;;
79438;SDS011;68889;48.232;10.110;2023-04-16T05:47:47;4.45;;;2.35;;
79438;SDS011;68889;48.232;10.110;2023-04-16T05:50:18;4.18;;;3.00;;
79438;SDS011;68889;48.232;10.110;2023-04-16T05:52:44;3.50;;;2.50;;
79438;SDS011;68889;48.232;10.110;2023-04-16T05:55:10;3.45;;;2.13;;
79438;SDS011;68889;48.232;10.110;2023-04-16T05:57:35;2.75;;;1.90;;
79438;SDS011;68889;48.232;10.110;2023-04-16T06:00:10;3.85;;;2.60;;
79438;SDS011;68889;48.232;10.110;2023-04-16T06:02:38;2.97;;;2.10;;
79438;SDS011;68889;48.232;10.110;2023-04-16T06:05:04;4.45;;;2.60;;
79438;SDS011;68889;48.232;10.110;2023-04-16T06:07:30;3.50;;;2.38;;
79438;SDS011;68889;48.232;10.110;2023-04-16T06:09:55;3.35;;;2.30;;
79438;SDS011;68889;48.232;10.110;2023-04-16T06:12:21;3.90;;;3.45;;
79438;SDS011;68889;48.232;10.110;2023-04-16T06:14:46;4.18;;;2.53;;
79438;SDS011;68889;48.232;10.110;2023-04-16T06:17:12;3.10;;;1.90;;
79438;SDS011;68889;48.232;10.110;2023-04-16T06:19:37;3.92;;;2.40;;
79438;SDS011;68889;48.232;10.110;2023-04-16T06:22:03;4.00;;;2.35;;
79438;SDS011;68889;48.232;10.110;2023-04-16T06:24:30;3.50;;;1.95;;
79438;SDS011;68889;48.232;10.110;2023-04-16T06:26:56;3.90;;;2.58;;
79438;SDS011;68889;48.232;10.110;2023-04-16T06:29:21;3.20;;;1.98;;
79438;SDS011;68889;48.232;10.110;2023-04-16T06:31:47;3.00;;;2.08;;
79438;SDS011;68889;48.232;10.110;2023-04-16T06:34:13;3.05;;;2.00;;
79438;SDS011;68889;48.232;10.110;2023-04-16T06:36:38;3.28;;;2.08;;
79438;SDS011;68889;48.232;10.110;2023-04-16T06:39:04;2.97;;;1.63;;
79438;SDS011;68889;48.232;10.110;2023-04-16T06:41:29;2.58;;;1.80;;
79438;SDS011;68889;48.232;10.110;2023-04-16T06:43:55;2.50;;;1.55;;
79438;SDS011;68889;48.232;10.110;2023-04-16T06:46:20;3.35;;;1.60;;
79438;SDS011;68889;48.232;10.110;2023-04-16T06:48:46;2.55;;;1.80;;
79438;SDS011;68889;48.232;10.110;2023-04-16T06:51:12;2.72;;;1.70;;
79438;SDS011;68889;48.232;10.110;2023-04-16T06:53:37;2.50;;;1.73;;
79438;SDS011;68889;48.232;10.110;2023-04-16T06:56:03;2.50;;;1.67;;
79438;SDS011;68889;48.232;10.110;2023-04-16T06:58:29;3.03;;;1.90;;
79438;SDS011;68889;48.232;10.110;2023-04-16T07:00:54;2.03;;;1.50;;
79438;SDS011;68889;48.232;10.110;2023-04-16T07:03:20;2.92;;;1.45;;
79438;SDS011;68889;48.232;10.110;2023-04-16T07:05:45;2.50;;;1.48;;
79438;SDS011;68889;48.232;10.110;2023-04-16T07:08:11;2.30;;;1.40;;
79438;SDS011;68889;48.232;10.110;2023-04-16T07:10:37;2.17;;;1.30;;
79438;SDS011;68889;48.232;10.110;2023-04-16T07:13:02;1.73;;;0.98;;
79438;SDS011;68889;48.232;10.110;2023-04-16T07:15:28;2.67;;;1.35;;
79438;SDS011;68889;48.232;10.110;2023-04-16T07:17:54;2.08;;;1.33;;
79438;SDS011;68889;48.232;10.110;2023-04-16T07:20:19;2.72;;;1.40;;
79438;SDS011;68889;48.232;10.110;2023-04-16T07:22:45;2.83;;;1.25;;
79438;SDS011;68889;48.232;10.110;2023-04-16T07:25:10;2.10;;;1.33;;
79438;SDS011;68889;48.232;10.110;2023-04-16T07:27:36;2.40;;;1.13;;
79438;SDS011;68889;48.232;10.110;2023-04-16T07:30:02;2.53;;;1.63;;
79438;SDS011;68889;48.232;10.110;2023-04-16T07:32:27;4.93;;;2.97;;
79438;SDS011;68889;48.232;10.110;2023-04-16T07:34:53;2.22;;;1.40;;
79438;SDS011;68889;48.232;10.110;2023-04-16T07:37:20;3.42;;;1.80;;
79438;SDS011;68889;48.232;10.110;2023-04-16T07:39:45;2.60;;;1.33;;
79438;SDS011;68889;48.232;10.110;2023-04-16T07:42:11;2.00;;;1.15;;
79438;SDS011;68889;48.232;10.110;2023-04-16T07:44:36;2.25;;;1.02;;
79438;SDS011;68889;48.232;10.110;2023-04-16T07:47:02;3.85;;;2.55;;
79438;SDS011;68889;48.232;10.110;2023-04-16T07:49:28;2.15;;;1.08;;
79438;SDS011;68889;48.232;10.110;2023-04-16T07:51:53;2.22;;;1.20;;
79438;SDS011;68889;48.232;10.110;2023-04-16T07:54:19;2.78;;;1.67;;
79438;SDS011;68889;48.232;10.110;2023-04-16T07:56:45;1.60;;;1.00;;
79438;SDS011;68889;48.232;10.110;2023-04-16T07:59:10;2.40;;;1.25;;
79438;SDS011;68889;48.232;10.110;2023-04-16T08:01:36;1.75;;;0.90;;
79438;SDS011;68889;48.232;10.110;2023-04-16T08:04:01;1.80;;;1.15;;
79438;SDS011;68889;48.232;10.110;2023-04-16T08:06:27;2.65;;;1.80;;
79438;SDS011;68889;48.232;10.110;2023-04-16T08:08:52;4.00;;;2.13;;
79438;SDS011;68889;48.232;10.110;2023-04-16T08:11:18;2.70;;;1.40;;
79438;SDS011;68889;48.232;10.110;2023-04-16T08:13:44;2.33;;;1.17;;
79438;SDS011;68889;48.232;10.110;2023-04-16T08:16:10;2.28;;;1.33;;
79438;SDS011;68889;48.232;10.110;2023-04-16T08:18:35;2.50;;;1.17;;
79438;SDS011;68889;48.232;10.110;2023-04-16T08:21:01;2.70;;;1.65;;
79438;SDS011;68889;48.232;10.110;2023-04-16T08:23:27;2.58;;;1.30;;
79438;SDS011;68889;48.232;10.110;2023-04-16T08:25:53;2.97;;;1.50;;
79438;SDS011;68889;48.232;10.110;2023-04-16T08:28:18;2.30;;;1.40;;
79438;SDS011;68889;48.232;10.110;2023-04-16T08:30:44;3.10;;;1.55;;
79438;SDS011;68889;48.232;10.110;2023-04-16T08:33:10;4.85;;;2.72;;
79438;SDS011;68889;48.232;10.110;2023-04-16T08:35:38;3.60;;;2.08;;
79438;SDS011;68889;48.232;10.110;2023-04-16T08:38:03;2.42;;;1.13;;
79438;SDS011;68889;48.232;10.110;2023-04-16T08:40:29;1.90;;;1.02;;
79438;SDS011;68889;48.232;10.110;2023-04-16T08:42:57;3.83;;;2.17;;
79438;SDS011;68889;48.232;10.110;2023-04-16T08:45:25;4.65;;;2.60;;
79438;SDS011;68889;48.232;10.110;2023-04-16T08:50:19;2.83;;;1.75;;
79438;SDS011;68889;48.232;10.110;2023-04-16T08:52:57;2.58;;;1.40;;
79438;SDS011;68889;48.232;10.110;2023-04-16T08:55:40;2.60;;;1.48;;
79438;SDS011;68889;48.232;10.110;2023-04-16T08:58:14;2.67;;;1.50;;
79438;SDS011;68889;48.232;10.110;2023-04-16T09:00:43;3.35;;;1.30;;
79438;SDS011;68889;48.232;10.110;2023-04-16T09:03:10;5.40;;;2.47;;
79438;SDS011;68889;48.232;10.110;2023-04-16T09:05:37;2.40;;;1.33;;
79438;SDS011;68889;48.232;10.110;2023-04-16T09:08:03;2.30;;;1.20;;
79438;SDS011;68889;48.232;10.110;2023-04-16T09:10:31;3.35;;;1.83;;
79438;SDS011;68889;48.232;10.110;2023-04-16T09:12:56;3.40;;;2.20;;
79438;SDS011;68889;48.232;10.110;2023-04-16T09:15:23;2.40;;;1.70;;
79438;SDS011;68889;48.232;10.110;2023-04-16T09:17:51;2.45;;;1.40;;
79438;SDS011;68889;48.232;10.110;2023-04-16T09:20:17;2.08;;;0.98;;
79438;SDS011;68889;48.232;10.110;2023-04-16T09:22:44;2.05;;;1.10;;
79438;SDS011;68889;48.232;10.110;2023-04-16T09:25:10;3.58;;;1.88;;
79438;SDS011;68889;48.232;10.110;2023-04-16T09:27:37;2.08;;;1.10;;
79438;SDS011;68889;48.232;10.110;2023-04-16T09:30:19;2.15;;;1.10;;
79438;SDS011;68889;48.232;10.110;2023-04-16T09:32:49;1.42;;;0.73;;
79438;SDS011;68889;48.232;10.110;2023-04-16T09:35:16;3.25;;;1.60;;
79438;SDS011;68889;48.232;10.110;2023-04-16T09:37:43;3.50;;;1.95;;
79438;SDS011;68889;48.232;10.110;2023-04-16T09:40:08;2.05;;;1.10;;
79438;SDS011;68889;48.232;10.110;2023-04-16T09:42:35;4.90;;;2.58;;
79438;SDS011;68889;48.232;10.110;2023-04-16T09:45:01;2.30;;;1.50;;
79438;SDS011;68889;48.232;10.110;2023-04-16T09:47:43;2.63;;;1.40;;
79438;SDS011;68889;48.232;10.110;2023-04-16T09:50:17;2.22;;;1.40;;
79438;SDS011;68889;48.232;10.110;2023-04-16T09:52:46;2.58;;;1.38;;
79438;SDS011;68889;48.232;10.110;2023-04-16T09:55:13;2.30;;;1.20;;
79438;SDS011;68889;48.232;10.110;2023-04-16T09:57:39;2.50;;;1.10;;
79438;SDS011;68889;48.232;10.110;2023-04-16T10:00:06;2.08;;;1.20;;
79438;SDS011;68889;48.232;10.110;2023-04-16T10:02:33;2.60;;;1.30;;
79438;SDS011;68889;48.232;10.110;2023-04-16T10:05:00;1.80;;;1.05;;
79438;SDS011;68889;48.232;10.110;2023-04-16T10:07:27;1.85;;;1.20;;
79438;SDS011;68889;48.232;10.110;2023-04-16T10:09:53;1.55;;;1.00;;
79438;SDS011;68889;48.232;10.110;2023-04-16T10:12:19;1.73;;;1.00;;
79438;SDS011;68889;48.232;10.110;2023-04-16T10:14:45;2.70;;;1.17;;
79438;SDS011;68889;48.232;10.110;2023-04-16T10:17:11;2.05;;;1.20;;
79438;SDS011;68889;48.232;10.110;2023-04-16T10:19:37;2.85;;;1.60;;
79438;SDS011;68889;48.232;10.110;2023-04-16T10:22:03;2.90;;;1.58;;
79438;SDS011;68889;48.232;10.110;2023-04-16T10:24:29;1.88;;;1.10;;
79438;SDS011;68889;48.232;10.110;2023-04-16T10:26:56;2.47;;;1.30;;
79438;SDS011;68889;48.232;10.110;2023-04-16T10:29:23;2.13;;;1.00;;
79438;SDS011;68889;48.232;10.110;2023-04-16T10:31:50;2.20;;;1.27;;
79438;SDS011;68889;48.232;10.110;2023-04-16T10:34:19;2.85;;;1.58;;
79438;SDS011;68889;48.232;10.110;2023-04-16T10:36:49;2.55;;;1.40;;
79438;SDS011;68889;48.232;10.110;2023-04-16T10:39:19;3.55;;;1.98;;
79438;SDS011;68889;48.232;10.110;2023-04-16T10:42:05;2.38;;;1.48;;
79438;SDS011;68889;48.232;10.110;2023-04-16T10:44:35;2.13;;;1.30;;
79438;SDS011;68889;48.232;10.110;2023-04-16T10:47:01;2.47;;;1.60;;
79438;SDS011;68889;48.232;10.110;2023-04-16T10:49:33;3.13;;;1.83;;
79438;SDS011;68889;48.232;10.110;2023-04-16T10:52:01;3.95;;;2.35;;
79438;SDS011;68889;48.232;10.110;2023-04-16T10:54:34;2.00;;;1.20;;
79438;SDS011;68889;48.232;10.110;2023-04-16T10:57:05;1.83;;;1.10;;
79438;SDS011;68889;48.232;10.110;2023-04-16T10:59:33;2.35;;;1.50;;
79438;SDS011;68889;48.232;10.110;2023-04-16T11:02:00;2.78;;;1.45;;
79438;SDS011;68889;48.232;10.110;2023-04-16T11:04:38;2.15;;;1.25;;
79438;SDS011;68889;48.232;10.110;2023-04-16T11:14:55;2.42;;;1.50;;
79438;SDS011;68889;48.232;10.110;2023-04-16T11:17:27;3.40;;;1.50;;
79438;SDS011;68889;48.232;10.110;2023-04-16T11:19:57;2.95;;;1.40;;
79438;SDS011;68889;48.232;10.110;2023-04-16T11:22:23;1.88;;;1.17;;
79438;SDS011;68889;48.232;10.110;2023-04-16T11:24:52;3.25;;;1.98;;
79438;SDS011;68889;48.232;10.110;2023-04-16T11:27:19;3.65;;;2.55;;
79438;SDS011;68889;48.232;10.110;2023-04-16T11:29:45;2.00;;;1.20;;
79438;SDS011;68889;48.232;10.110;2023-04-16T11:32:10;2.72;;;1.42;;
79438;SDS011;68889;48.232;10.110;2023-04-16T11:34:45;3.80;;;1.85;;
79438;SDS011;68889;48.232;10.110;2023-04-16T11:37:11;2.38;;;1.52;;
79438;SDS011;68889;48.232;10.110;2023-04-16T11:39:49;3.83;;;1.85;;
79438;SDS011;68889;48.232;10.110;2023-04-16T11:42:20;3.35;;;1.80;;
79438;SDS011;68889;48.232;10.110;2023-04-16T11:44:50;2.88;;;1.50;;
79438;SDS011;68889;48.232;10.110;2023-04-16T11:47:17;2.85;;;1.65;;
79438;SDS011;68889;48.232;10.110;2023-04-16T11:49:42;2.40;;;1.48;;
79438;SDS011;68889;48.232;10.110;2023-04-16T11:52:08;3.53;;;1.90;;
79438;SDS011;68889;48.232;10.110;2023-04-16T11:54:34;2.85;;;1.67;;
79438;SDS011;68889;48.232;10.110;2023-04-16T11:59:28;2.90;;;1.40;;
79438;SDS011;68889;48.232;10.110;2023-04-16T12:01:54;2.60;;;1.25;;
79438;SDS011;68889;48.232;10.110;2023-04-16T12:04:23;3.03;;;1.60;;
79438;SDS011;68889;48.232;10.110;2023-04-16T12:07:06;2.80;;;1.70;;
79438;SDS011;68889;48.232;10.110;2023-04-16T12:09:33;2.97;;;1.60;;
79438;SDS011;68889;48.232;10.110;2023-04-16T12:11:59;3.10;;;1.63;;
79438;SDS011;68889;48.232;10.110;2023-04-16T12:14:26;2.78;;;1.45;;
79438;SDS011;68889;48.232;10.110;2023-04-16T12:16:52;2.92;;;1.35;;
79438;SDS011;68889;48.232;10.110;2023-04-16T12:19:18;3.25;;;1.83;;
79438;SDS011;68889;48.232;10.110;2023-04-16T12:21:44;2.50;;;1.60;;
79438;SDS011;68889;48.232;10.110;2023-04-16T12:24:13;3.10;;;2.10;;
79438;SDS011;68889;48.232;10.110;2023-04-16T12:26:41;3.75;;;2.08;;
79438;SDS011;68889;48.232;10.110;2023-04-16T12:29:21;2.80;;;1.70;;
79438;SDS011;68889;48.232;10.110;2023-04-16T12:31:48;2.60;;;1.70;;
79438;SDS011;68889;48.232;10.110;2023-04-16T12:34:15;3.40;;;1.98;;
79438;SDS011;68889;48.232;10.110;2023-04-16T12:36:41;2.40;;;1.65;;
79438;SDS011;68889;48.232;10.110;2023-04-16T12:39:08;4.28;;;1.92;;
79438;SDS011;68889;48.232;10.110;2023-04-16T12:41:38;3.10;;;1.70;;
79438;SDS011;68889;48.232;10.110;2023-04-16T12:44:06;3.35;;;1.92;;
79438;SDS011;68889;48.232;10.110;2023-04-16T12:46:33;3.45;;;1.90;;
79438;SDS011;68889;48.232;10.110;2023-04-16T12:49:00;3.20;;;1.98;;
79438;SDS011;68889;48.232;10.110;2023-04-16T12:51:26;3.67;;;1.90;;
79438;SDS011;68889;48.232;10.110;2023-04-16T12:53:52;4.32;;;2.33;;
79438;SDS011;68889;48.232;10.110;2023-04-16T12:56:18;3.75;;;1.83;;
79438;SDS011;68889;48.232;10.110;2023-04-16T12:58:44;3.63;;;1.85;;
79438;SDS011;68889;48.232;10.110;2023-04-16T13:01:09;3.38;;;1.77;;
79438;SDS011;68889;48.232;10.110;2023-04-16T13:03:36;4.47;;;2.55;;
79438;SDS011;68889;48.232;10.110;2023-04-16T13:06:02;4.38;;;2.38;;
79438;SDS011;68889;48.232;10.110;2023-04-16T13:08:28;4.18;;;2.25;;
79438;SDS011;68889;48.232;10.110;2023-04-16T13:10:53;4.40;;;2.15;;
79438;SDS011;68889;48.232;10.110;2023-04-16T13:13:19;4.00;;;1.98;;
79438;SDS011;68889;48.232;10.110;2023-04-16T13:15:45;4.38;;;2.13;;
79438;SDS011;68889;48.232;10.110;2023-04-16T13:18:10;3.88;;;2.38;;
79438;SDS011;68889;48.232;10.110;2023-04-16T13:20:36;2.80;;;1.63;;
79438;SDS011;68889;48.232;10.110;2023-04-16T13:23:02;2.97;;;1.80;;
79438;SDS011;68889;48.232;10.110;2023-04-16T13:25:29;3.40;;;1.70;;
79438;SDS011;68889;48.232;10.110;2023-04-16T13:27:55;2.78;;;1.73;;
79438;SDS011;68889;48.232;10.110;2023-04-16T13:30:20;3.35;;;1.92;;
79438;SDS011;68889;48.232;10.110;2023-04-16T13:32:46;3.20;;;1.98;;
79438;SDS011;68889;48.232;10.110;2023-04-16T13:35:12;3.13;;;1.70;;
79438;SDS011;68889;48.232;10.110;2023-04-16T13:37:37;3.00;;;1.83;;
79438;SDS011;68889;48.232;10.110;2023-04-16T13:40:03;2.55;;;1.48;;
79438;SDS011;68889;48.232;10.110;2023-04-16T13:42:29;3.65;;;2.03;;
79438;SDS011;68889;48.232;10.110;2023-04-16T13:44:54;3.10;;;1.48;;
79438;SDS011;68889;48.232;10.110;2023-04-16T13:47:22;4.20;;;2.35;;
79438;SDS011;68889;48.232;10.110;2023-04-16T13:49:47;2.10;;;1.40;;
79438;SDS011;68889;48.232;10.110;2023-04-16T13:52:13;2.05;;;1.20;;
79438;SDS011;68889;48.232;10.110;2023-04-16T13:54:38;1.83;;;1.20;;
79438;SDS011;68889;48.232;10.110;2023-04-16T13:57:04;2.15;;;1.20;;
79438;SDS011;68889;48.232;10.110;2023-04-16T13:59:30;2.03;;;1.15;;
79438;SDS011;68889;48.232;10.110;2023-04-16T14:01:56;2.22;;;1.10;;
79438;SDS011;68889;48.232;10.110;2023-04-16T14:04:22;2.80;;;1.67;;
79438;SDS011;68889;48.232;10.110;2023-04-16T14:06:48;2.45;;;1.27;;
79438;SDS011;68889;48.232;10.110;2023-04-16T14:09:13;2.67;;;1.23;;
79438;SDS011;68889;48.232;10.110;2023-04-16T14:11:40;2.30;;;1.27;;
79438;SDS011;68889;48.232;10.110;2023-04-16T14:14:05;1.75;;;1.00;;
79438;SDS011;68889;48.232;10.110;2023-04-16T14:16:31;2.35;;;0.98;;
79438;SDS011;68889;48.232;10.110;2023-04-16T14:18:57;2.22;;;1.00;;
79438;SDS011;68889;48.232;10.110;2023-04-16T14:21:23;1.98;;;1.20;;
79438;SDS011;68889;48.232;10.110;2023-04-16T14:23:49;1.48;;;1.00;;
79438;SDS011;68889;48.232;10.110;2023-04-16T14:26:15;2.28;;;1.15;;
79438;SDS011;68889;48.232;10.110;2023-04-16T14:28:40;3.13;;;1.10;;
79438;SDS011;68889;48.232;10.110;2023-04-16T14:31:06;3.72;;;1.15;;
79438;SDS011;68889;48.232;10.110;2023-04-16T14:33:31;2.55;;;1.10;;
79438;SDS011;68889;48.232;10.110;2023-04-16T14:35:57;2.10;;;1.02;;
79438;SDS011;68889;48.232;10.110;2023-04-16T14:38:23;2.42;;;1.35;;
79438;SDS011;68889;48.232;10.110;2023-04-16T14:40:48;3.38;;;1.70;;
79438;SDS011;68889;48.232;10.110;2023-04-16T14:43:14;2.92;;;1.48;;
79438;SDS011;68889;48.232;10.110;2023-04-16T14:45:39;3.47;;;1.80;;